Time;durP1;ratioP1;P1;durP2;ratioP2;P2;SDS_P1;SDS_P2;PMS_P1;PMS_P2;Temp;Humidity;BMP_temperature;BMP_pressure;BME280_temperature;BME280_humidity;BME280_pressure;Samples;Min_cycle;Max_cycle;Signal;HPM_P1;HPM_P2
2023/01/09 00:00:42;;;;;;;10.67;7.70;;;5.60;99.90;;;;;;5031761;28;20668;-69
2023/01/09 00:03:07;;;;;;;11.50;7.40;;;5.50;99.90;;;;;;5025212;28;20435;-69
2023/01/09 00:05:33;;;;;;;10.57;8.23;;;5.50;99.90;;;;;;5029705;28;20910;-70
2023/01/09 00:07:59;;;;;;;9.93;7.40;;;5.50;99.90;;;;;;5031310;28;20183;-69
2023/01/09 00:10:24;;;;;;;11.10;6.80;;;5.50;99.90;;;;;;5031297;28;20183;-70
2023/01/09 00:12:50;;;;;;;12.87;8.93;;;5.50;99.90;;;;;;5031549;28;20200;-69
2023/01/09 00:15:15;;;;;;;16.47;8.10;;;5.50;99.90;;;;;;5031609;28;20625;-69
2023/01/09 00:17:41;;;;;;;10.40;9.03;;;5.40;99.90;;;;;;5031266;28;20335;-69
2023/01/09 00:20:08;;;;;;;8.87;6.53;;;5.40;99.90;;;;;;5031049;28;20221;-70
2023/01/09 00:22:35;;;;;;;7.83;6.80;;;5.40;99.90;;;;;;5031226;28;20196;-69
2023/01/09 00:25:00;;;;;;;12.40;7.73;;;5.40;99.90;;;;;;5031220;28;20437;-69
2023/01/09 00:27:30;;;;;;;15.27;7.50;;;5.40;99.90;;;;;;5031227;28;20496;-70
2023/01/09 00:29:56;;;;;;;10.30;7.70;;;5.40;99.90;;;;;;5031083;28;20171;-69
2023/01/09 00:32:21;;;;;;;13.40;9.07;;;5.40;99.90;;;;;;5030855;28;20454;-70
2023/01/09 00:34:47;;;;;;;13.30;8.93;;;5.30;99.90;;;;;;5030981;28;20702;-69
2023/01/09 00:37:13;;;;;;;11.17;8.53;;;5.30;99.90;;;;;;5030841;28;20282;-69
2023/01/09 00:39:39;;;;;;;11.40;8.73;;;5.30;99.90;;;;;;5030762;28;20179;-69
2023/01/09 00:42:08;;;;;;;12.53;8.60;;;5.20;99.90;;;;;;5030710;28;20274;-70
2023/01/09 00:44:41;;;;;;;10.93;7.93;;;5.30;99.90;;;;;;5031167;28;20843;-69
2023/01/09 00:47:13;;;;;;;12.80;8.80;;;5.30;99.90;;;;;;5030738;28;20414;-69
2023/01/09 00:49:39;;;;;;;11.20;8.67;;;5.20;99.90;;;;;;5030582;28;20495;-69
2023/01/09 00:52:08;;;;;;;11.93;7.70;;;5.20;99.90;;;;;;5030627;28;20435;-69
2023/01/09 00:54:33;;;;;;;11.70;8.07;;;5.20;99.90;;;;;;5030965;28;20415;-69
2023/01/09 00:56:59;;;;;;;10.03;8.20;;;5.20;99.90;;;;;;5031170;28;20975;-69
2023/01/09 00:59:26;;;;;;;9.73;8.10;;;5.20;99.90;;;;;;5030567;28;20648;-69
2023/01/09 01:01:52;;;;;;;12.30;9.03;;;5.20;99.90;;;;;;5030621;28;20444;-69
2023/01/09 01:09:46;;;;;;;9.67;8.67;;;5.10;99.90;;;;;;5022861;28;20793;-69
2023/01/09 01:12:11;;;;;;;17.03;8.67;;;5.10;99.90;;;;;;5030343;28;20438;-68
2023/01/09 01:14:38;;;;;;;12.07;8.60;;;5.10;99.90;;;;;;5030322;28;20186;-69
2023/01/09 01:17:04;;;;;;;14.70;8.53;;;5.10;99.90;;;;;;5030543;28;20241;-69
2023/01/09 01:19:29;;;;;;;14.83;8.83;;;5.10;99.90;;;;;;5028872;28;20414;-69
2023/01/09 01:21:56;;;;;;;10.33;7.83;;;5.10;99.90;;;;;;5023417;28;20437;-69
2023/01/09 01:24:21;;;;;;;11.60;8.33;;;5.10;99.90;;;;;;5029979;28;20198;-69
2023/01/09 01:26:47;;;;;;;13.67;9.67;;;5.10;99.90;;;;;;5030188;28;20426;-68
2023/01/09 01:29:13;;;;;;;13.13;7.60;;;5.10;99.90;;;;;;5029971;28;20183;-69
2023/01/09 01:31:39;;;;;;;12.77;10.53;;;5.00;99.90;;;;;;5029566;28;20222;-68
2023/01/09 01:34:04;;;;;;;12.23;8.10;;;5.00;99.90;;;;;;5029886;28;20172;-69
2023/01/09 01:36:30;;;;;;;11.23;8.37;;;5.00;99.90;;;;;;5029810;28;20461;-69
2023/01/09 01:38:56;;;;;;;11.60;8.60;;;5.00;99.90;;;;;;5030062;28;20609;-69
2023/01/09 01:41:30;;;;;;;9.27;8.30;;;4.90;99.90;;;;;;5029685;28;20179;-69
2023/01/09 01:43:59;;;;;;;13.33;10.10;;;4.90;99.90;;;;;;5023623;28;20582;-68
2023/01/09 01:46:25;;;;;;;11.40;8.37;;;4.90;99.90;;;;;;5029916;28;20414;-69
2023/01/09 01:49:08;;;;;;;11.23;9.03;;;4.90;99.90;;;;;;5029827;28;20414;-69
2023/01/09 01:51:38;;;;;;;14.77;9.90;;;4.90;99.90;;;;;;5029607;28;20443;-69
2023/01/09 01:54:08;;;;;;;12.63;9.03;;;4.80;99.90;;;;;;5029598;28;20410;-69
2023/01/09 01:56:42;;;;;;;15.50;8.77;;;4.80;99.90;;;;;;5029546;28;20462;-69
2023/01/09 01:59:27;;;;;;;9.50;7.87;;;4.80;99.90;;;;;;5029611;28;20405;-69
2023/01/09 02:01:56;;;;;;;12.87;9.80;;;4.80;99.90;;;;;;5024038;28;20438;-69
2023/01/09 02:04:22;;;;;;;17.40;9.87;;;4.80;99.90;;;;;;5026876;28;20976;-69
2023/01/09 02:06:51;;;;;;;13.13;9.87;;;4.80;99.90;;;;;;5029756;28;20556;-68
2023/01/09 02:09:21;;;;;;;12.00;9.23;;;4.70;99.90;;;;;;5028531;28;20187;-68
2023/01/09 02:11:51;;;;;;;11.80;8.00;;;4.70;99.90;;;;;;5021758;28;20437;-68
2023/01/09 02:14:19;;;;;;;14.07;9.87;;;4.70;99.90;;;;;;5030079;28;20409;-68
2023/01/09 02:17:18;;;;;;;13.83;10.47;;;4.70;99.90;;;;;;5029653;28;20461;-69
2023/01/09 02:20:04;;;;;;;16.83;10.60;;;4.70;99.90;;;;;;5029975;28;20407;-69
2023/01/09 02:22:44;;;;;;;14.93;10.40;;;4.70;99.90;;;;;;5029574;28;20521;-71
2023/01/09 02:25:22;;;;;;;17.80;10.00;;;4.70;99.90;;;;;;5029783;28;20452;-68
2023/01/09 02:28:25;;;;;;;16.73;10.43;;;4.70;99.90;;;;;;5027789;28;20405;-68
2023/01/09 02:31:08;;;;;;;12.60;9.07;;;4.70;99.90;;;;;;5024304;28;20759;-70
2023/01/09 02:33:55;;;;;;;12.07;9.23;;;4.70;99.90;;;;;;5028324;28;20453;-69
2023/01/09 02:36:29;;;;;;;12.30;9.80;;;4.60;99.90;;;;;;5026021;28;20472;-69
2023/01/09 02:39:13;;;;;;;15.47;10.37;;;4.60;99.90;;;;;;5029400;28;20716;-68
2023/01/09 02:41:47;;;;;;;15.77;10.93;;;4.60;99.90;;;;;;5029366;28;20438;-70
2023/01/09 02:44:17;;;;;;;15.73;11.13;;;4.60;99.90;;;;;;5029997;28;20503;-70
2023/01/09 02:46:42;;;;;;;16.83;11.10;;;4.60;99.90;;;;;;5032022;28;20406;-69
2023/01/09 02:49:08;;;;;;;17.40;9.43;;;4.60;99.90;;;;;;5027439;28;20406;-69
2023/01/09 02:51:58;;;;;;;13.30;10.40;;;4.60;99.90;;;;;;5032694;28;20286;-70
2023/01/09 02:54:42;;;;;;;13.20;9.27;;;4.70;99.90;;;;;;5029750;28;20183;-70
2023/01/09 02:57:17;;;;;;;19.47;11.23;;;4.60;99.90;;;;;;5027593;28;21003;-69
2023/01/09 03:00:01;;;;;;;12.67;9.43;;;4.60;99.90;;;;;;5032252;28;20448;-68
2023/01/09 03:02:35;;;;;;;17.97;11.20;;;4.60;99.90;;;;;;5032483;28;20433;-70
2023/01/09 03:05:17;;;;;;;15.70;9.70;;;4.60;99.90;;;;;;5032567;28;20490;-70
2023/01/09 03:08:04;;;;;;;15.20;11.43;;;4.60;99.90;;;;;;5032671;28;20962;-70
2023/01/09 03:10:57;;;;;;;16.33;11.20;;;4.60;99.90;;;;;;5032342;28;20411;-69
2023/01/09 03:13:24;;;;;;;17.60;11.77;;;4.60;99.90;;;;;;5032152;28;20547;-68
2023/01/09 03:15:53;;;;;;;17.50;10.80;;;4.60;99.90;;;;;;5032368;28;20410;-69
2023/01/09 03:18:22;;;;;;;14.87;11.70;;;4.60;99.90;;;;;;5032059;28;20459;-69
2023/01/09 03:20:49;;;;;;;16.17;10.90;;;4.50;99.90;;;;;;5024387;28;20406;-69
2023/01/09 03:23:14;;;;;;;14.93;11.37;;;4.50;99.90;;;;;;5032089;28;20508;-68
2023/01/09 03:25:40;;;;;;;15.83;11.33;;;4.50;99.90;;;;;;5031451;28;20773;-69
2023/01/09 03:28:11;;;;;;;16.03;10.30;;;4.50;99.90;;;;;;5031935;28;20217;-69
2023/01/09 03:30:37;;;;;;;15.90;10.07;;;4.60;99.90;;;;;;5031249;28;20176;-68
2023/01/09 03:33:03;;;;;;;17.03;11.53;;;4.60;99.90;;;;;;5031202;28;20473;-69
2023/01/09 03:35:28;;;;;;;16.37;11.37;;;4.70;99.90;;;;;;5029039;28;20666;-68
2023/01/09 03:37:54;;;;;;;22.97;11.77;;;4.70;99.90;;;;;;5031401;28;20207;-68
2023/01/09 03:40:20;;;;;;;16.27;10.43;;;4.80;99.90;;;;;;5031216;28;20187;-68
2023/01/09 03:42:46;;;;;;;14.70;9.93;;;4.80;99.90;;;;;;5023163;28;20194;-68
2023/01/09 03:45:12;;;;;;;15.63;10.63;;;4.90;99.90;;;;;;5031298;28;20402;-69
2023/01/09 03:47:38;;;;;;;16.13;10.73;;;5.00;99.90;;;;;;5031350;28;20492;-69
2023/01/09 03:50:05;;;;;;;15.03;10.50;;;5.00;99.90;;;;;;5026481;28;20407;-69
2023/01/09 03:52:30;;;;;;;11.60;9.57;;;5.10;99.90;;;;;;5029191;28;20438;-69
2023/01/09 03:54:56;;;;;;;17.40;11.70;;;5.10;99.90;;;;;;5027392;28;20877;-69
2023/01/09 03:57:23;;;;;;;16.17;10.40;;;5.20;99.90;;;;;;5022851;28;20254;-69
2023/01/09 03:59:48;;;;;;;19.00;12.17;;;5.20;99.90;;;;;;5028688;28;20159;-70
2023/01/09 04:02:14;;;;;;;16.37;11.50;;;5.30;99.90;;;;;;5031284;28;20418;-70
2023/01/09 04:04:40;;;;;;;17.23;11.33;;;5.30;99.90;;;;;;5031761;28;20208;-70
2023/01/09 04:07:05;;;;;;;16.40;9.57;;;5.30;99.90;;;;;;5030885;28;20175;-69
2023/01/09 04:09:31;;;;;;;15.80;11.10;;;5.30;99.90;;;;;;5030862;28;20671;-69
2023/01/09 04:11:56;;;;;;;19.77;12.17;;;5.40;99.90;;;;;;5031131;28;20195;-70
2023/01/09 04:14:22;;;;;;;15.03;10.47;;;5.40;99.90;;;;;;5031059;28;20271;-70
2023/01/09 04:16:48;;;;;;;16.27;11.17;;;5.40;99.90;;;;;;5030684;28;20188;-70
2023/01/09 04:19:13;;;;;;;16.63;11.97;;;5.50;99.90;;;;;;5026732;28;20502;-69
2023/01/09 04:21:39;;;;;;;17.40;12.10;;;5.50;99.90;;;;;;5030684;28;20203;-69
2023/01/09 04:24:05;;;;;;;15.73;10.23;;;5.50;99.90;;;;;;5030450;28;20518;-70
2023/01/09 04:26:30;;;;;;;15.10;10.20;;;5.50;99.90;;;;;;5030351;28;20246;-69
2023/01/09 04:28:56;;;;;;;13.27;10.03;;;5.50;99.90;;;;;;5030217;28;20552;-70
2023/01/09 04:31:21;;;;;;;16.20;10.40;;;5.50;99.90;;;;;;5030154;28;20172;-70
2023/01/09 04:33:47;;;;;;;14.00;10.27;;;5.50;99.90;;;;;;5030409;28;20890;-69
2023/01/09 04:36:13;;;;;;;15.10;11.10;;;5.60;99.90;;;;;;5030071;28;20190;-68
2023/01/09 04:38:38;;;;;;;14.10;10.33;;;5.60;99.90;;;;;;5030098;28;20206;-68
2023/01/09 04:41:04;;;;;;;13.50;10.03;;;5.60;99.90;;;;;;5030454;28;20496;-69
2023/01/09 04:43:29;;;;;;;12.87;9.83;;;5.60;99.90;;;;;;5030286;28;20191;-69
2023/01/09 04:45:55;;;;;;;12.77;9.50;;;5.60;99.90;;;;;;5030112;28;20250;-69
2023/01/09 04:48:21;;;;;;;15.40;10.47;;;5.60;99.90;;;;;;5030191;28;20626;-69
2023/01/09 04:50:46;;;;;;;13.93;9.60;;;5.60;99.90;;;;;;5030537;28;20447;-70
2023/01/09 04:53:12;;;;;;;14.50;10.77;;;5.60;99.90;;;;;;5029916;28;20256;-68
2023/01/09 04:55:37;;;;;;;17.80;12.67;;;5.60;99.90;;;;;;5029704;28;20190;-68
2023/01/09 04:58:03;;;;;;;16.70;10.80;;;5.60;99.90;;;;;;5029511;28;20282;-69
2023/01/09 05:00:29;;;;;;;14.53;11.13;;;5.60;99.90;;;;;;5029566;28;20424;-69
2023/01/09 05:02:55;;;;;;;14.67;10.00;;;5.60;99.90;;;;;;5027965;28;20187;-68
2023/01/09 05:05:21;;;;;;;18.93;12.27;;;5.50;99.90;;;;;;5029579;28;20433;-68
2023/01/09 05:07:47;;;;;;;15.70;11.27;;;5.50;99.90;;;;;;5028162;28;20407;-68
2023/01/09 05:10:12;;;;;;;16.77;11.07;;;5.50;99.90;;;;;;5029406;28;20210;-69
2023/01/09 05:12:39;;;;;;;16.33;12.17;;;5.50;99.90;;;;;;5029407;28;20561;-68
2023/01/09 05:15:06;;;;;;;15.37;10.80;;;5.50;99.90;;;;;;5029218;28;20591;-68
2023/01/09 05:17:32;;;;;;;15.53;10.13;;;5.60;99.90;;;;;;5029231;28;20564;-68
2023/01/09 05:19:57;;;;;;;17.37;9.63;;;5.60;99.90;;;;;;5027843;28;20595;-69
2023/01/09 05:22:23;;;;;;;12.13;10.40;;;5.60;99.90;;;;;;5029344;28;20681;-69
2023/01/09 05:24:48;;;;;;;12.00;9.47;;;5.70;99.90;;;;;;5029485;28;20342;-68
2023/01/09 05:27:14;;;;;;;14.07;11.23;;;5.70;99.90;;;;;;5029338;28;20638;-69
2023/01/09 05:29:39;;;;;;;19.37;11.70;;;5.80;99.90;;;;;;5029359;28;20183;-69
2023/01/09 05:32:05;;;;;;;16.93;11.50;;;5.80;99.90;;;;;;5029205;28;20360;-68
2023/01/09 05:34:31;;;;;;;14.20;11.27;;;5.80;99.90;;;;;;5029519;28;20190;-68
2023/01/09 05:36:56;;;;;;;17.50;11.13;;;5.90;99.90;;;;;;5029249;28;20207;-68
2023/01/09 05:39:22;;;;;;;15.37;9.93;;;5.90;99.90;;;;;;5029529;28;20188;-69
2023/01/09 05:41:47;;;;;;;12.60;9.47;;;5.90;99.90;;;;;;5029988;28;20543;-69
2023/01/09 05:44:13;;;;;;;15.73;11.10;;;5.90;99.90;;;;;;5029144;28;20199;-69
2023/01/09 05:46:39;;;;;;;11.20;9.27;;;5.90;99.90;;;;;;5029522;28;20650;-69
2023/01/09 05:49:04;;;;;;;20.40;9.70;;;5.90;99.90;;;;;;5029700;28;20178;-69
2023/01/09 05:51:30;;;;;;;10.87;9.53;;;5.90;99.90;;;;;;5029403;28;20195;-70
2023/01/09 05:53:57;;;;;;;15.87;10.27;;;5.90;99.90;;;;;;5029103;28;20558;-70
2023/01/09 05:56:22;;;;;;;17.77;10.17;;;5.90;99.90;;;;;;5029024;28;22874;-71
2023/01/09 05:58:48;;;;;;;14.13;11.17;;;5.90;99.90;;;;;;5029075;28;20459;-70
2023/01/09 06:01:13;;;;;;;17.90;10.47;;;5.90;99.90;;;;;;5028948;28;20500;-70
2023/01/09 06:03:39;;;;;;;12.10;9.40;;;5.90;99.90;;;;;;5029114;28;20180;-70
2023/01/09 06:06:05;;;;;;;17.70;11.63;;;5.90;99.90;;;;;;5029038;28;20170;-69
2023/01/09 06:08:30;;;;;;;18.53;11.43;;;5.90;99.90;;;;;;5028882;28;20290;-69
2023/01/09 06:10:56;;;;;;;16.60;11.47;;;5.90;99.90;;;;;;5028803;28;20459;-69
2023/01/09 06:13:22;;;;;;;16.33;10.70;;;5.80;99.90;;;;;;5028633;28;20599;-69
2023/01/09 06:15:47;;;;;;;16.03;10.80;;;5.80;99.90;;;;;;5028823;28;20180;-70
2023/01/09 06:18:13;;;;;;;17.57;11.50;;;5.80;99.90;;;;;;5029151;28;20531;-70
2023/01/09 06:20:39;;;;;;;18.87;12.03;;;5.90;99.90;;;;;;5032700;28;20164;-70
2023/01/09 06:23:04;;;;;;;18.37;12.00;;;5.80;99.90;;;;;;5032622;28;20184;-70
2023/01/09 06:25:30;;;;;;;18.27;10.87;;;5.80;99.90;;;;;;5032445;28;20263;-70
2023/01/09 06:27:55;;;;;;;14.43;10.10;;;5.80;99.90;;;;;;5026933;28;20179;-68
2023/01/09 06:30:21;;;;;;;16.07;11.10;;;5.80;99.90;;;;;;5032174;28;20180;-70
2023/01/09 06:32:48;;;;;;;17.77;11.77;;;5.80;99.90;;;;;;5032392;28;20211;-69
2023/01/09 06:35:19;;;;;;;17.47;10.47;;;5.80;99.90;;;;;;5032413;28;20194;-69
2023/01/09 06:37:46;;;;;;;18.40;11.33;;;5.80;99.90;;;;;;5032347;28;20478;-70
2023/01/09 06:40:12;;;;;;;17.50;13.40;;;5.80;99.90;;;;;;5032233;28;20464;-67
2023/01/09 06:42:37;;;;;;;19.80;11.17;;;5.80;99.90;;;;;;5032024;28;20824;-70
2023/01/09 06:45:03;;;;;;;18.10;10.67;;;5.80;99.90;;;;;;5032052;28;20175;-69
2023/01/09 06:47:28;;;;;;;15.03;11.00;;;5.80;99.90;;;;;;5032432;28;20262;-70
2023/01/09 06:49:56;;;;;;;17.70;12.10;;;5.80;99.90;;;;;;5032473;28;20415;-68
2023/01/09 06:52:21;;;;;;;17.63;11.90;;;5.80;99.90;;;;;;5032266;28;20202;-68
2023/01/09 06:54:47;;;;;;;14.60;11.20;;;5.80;99.90;;;;;;5032067;28;20418;-68
2023/01/09 06:57:15;;;;;;;15.87;11.27;;;5.80;99.90;;;;;;5031870;28;20241;-68
2023/01/09 06:59:40;;;;;;;19.13;11.23;;;5.80;99.90;;;;;;5031696;28;20665;-67
2023/01/09 07:02:17;;;;;;;22.07;11.23;;;5.80;99.90;;;;;;5032082;28;20430;-68
2023/01/09 07:04:43;;;;;;;17.90;11.97;;;5.80;99.90;;;;;;5031818;28;20206;-68
2023/01/09 07:07:08;;;;;;;14.23;11.20;;;5.80;99.90;;;;;;5031941;28;20494;-69
2023/01/09 07:09:34;;;;;;;18.93;12.20;;;5.80;99.90;;;;;;5031717;28;20175;-69
2023/01/09 07:11:59;;;;;;;18.40;12.10;;;5.80;99.90;;;;;;5026351;28;20200;-69
2023/01/09 07:14:25;;;;;;;16.47;10.77;;;5.80;99.90;;;;;;5029045;28;20201;-69
2023/01/09 07:16:51;;;;;;;16.53;10.63;;;5.70;99.90;;;;;;5031486;28;20233;-69
2023/01/09 07:19:16;;;;;;;19.17;11.60;;;5.70;99.90;;;;;;5030273;28;20513;-69
2023/01/09 07:21:42;;;;;;;15.70;12.00;;;5.80;99.90;;;;;;5031736;28;20198;-69
2023/01/09 07:24:07;;;;;;;19.13;10.80;;;5.80;99.90;;;;;;5031966;28;20167;-68
2023/01/09 07:26:33;;;;;;;18.43;11.13;;;5.80;99.90;;;;;;5028584;28;20175;-69
2023/01/09 07:28:58;;;;;;;17.03;11.60;;;5.80;99.90;;;;;;5031099;28;20578;-69
2023/01/09 07:31:24;;;;;;;14.87;11.20;;;5.90;99.90;;;;;;5030331;28;20297;-69
2023/01/09 07:33:49;;;;;;;18.00;13.23;;;5.90;99.90;;;;;;5031227;28;20251;-68
2023/01/09 07:36:15;;;;;;;23.93;12.07;;;5.90;99.90;;;;;;5031254;28;20692;-69
2023/01/09 07:38:41;;;;;;;16.40;12.10;;;5.90;99.90;;;;;;5029938;28;20199;-69
2023/01/09 07:41:06;;;;;;;20.60;12.10;;;5.90;99.90;;;;;;5007903;28;20164;-69
2023/01/09 07:43:32;;;;;;;16.43;11.90;;;5.90;99.90;;;;;;5030906;28;20196;-68
2023/01/09 07:45:58;;;;;;;19.23;11.50;;;5.90;99.90;;;;;;5029278;28;20168;-69
2023/01/09 07:48:23;;;;;;;20.27;11.83;;;6.00;99.90;;;;;;5024543;28;20407;-68
2023/01/09 07:50:49;;;;;;;17.07;11.97;;;6.00;99.90;;;;;;5031083;28;20203;-68
2023/01/09 07:53:14;;;;;;;21.50;13.10;;;6.00;99.90;;;;;;5025952;28;20195;-70
2023/01/09 07:55:42;;;;;;;20.90;12.67;;;6.00;99.90;;;;;;5021976;28;20275;-69
2023/01/09 07:58:08;;;;;;;22.00;13.20;;;6.10;99.90;;;;;;5031789;28;20202;-69
2023/01/09 08:00:33;;;;;;;23.63;13.03;;;6.10;99.90;;;;;;5030701;28;20983;-69
2023/01/09 08:02:59;;;;;;;20.03;12.67;;;6.10;99.90;;;;;;5030808;28;20192;-68
2023/01/09 08:05:24;;;;;;;14.53;11.50;;;6.10;99.90;;;;;;5030539;28;20668;-69
2023/01/09 08:07:50;;;;;;;15.80;10.80;;;6.10;99.90;;;;;;5030629;28;20195;-68
2023/01/09 08:10:18;;;;;;;19.70;12.17;;;6.20;99.90;;;;;;5030312;28;20237;-69
2023/01/09 08:12:47;;;;;;;17.33;12.20;;;6.20;99.90;;;;;;5030521;28;20231;-69
2023/01/09 08:15:14;;;;;;;21.37;12.30;;;6.20;99.90;;;;;;5030523;28;20417;-70
2023/01/09 08:17:41;;;;;;;16.13;12.27;;;6.30;99.90;;;;;;5030717;28;20832;-68
2023/01/09 08:20:10;;;;;;;15.80;12.33;;;6.30;99.90;;;;;;5028007;28;20521;-69
2023/01/09 08:22:36;;;;;;;14.70;12.57;;;6.30;99.90;;;;;;5029130;28;20463;-70
2023/01/09 08:25:02;;;;;;;18.53;11.30;;;6.30;99.90;;;;;;5030418;28;20464;-69
2023/01/09 08:27:27;;;;;;;18.50;12.40;;;6.40;99.90;;;;;;5030469;28;20369;-69
2023/01/09 08:29:53;;;;;;;16.90;11.67;;;6.30;99.90;;;;;;5022317;28;20176;-69
2023/01/09 08:32:18;;;;;;;17.10;12.17;;;6.30;99.90;;;;;;5025330;28;20258;-70
2023/01/09 08:34:44;;;;;;;19.77;12.00;;;6.30;99.90;;;;;;5030005;28;20188;-70
2023/01/09 08:37:09;;;;;;;20.17;12.57;;;6.30;99.90;;;;;;5027203;28;20210;-70
2023/01/09 08:39:35;;;;;;;18.90;12.10;;;6.40;99.90;;;;;;5028420;28;20600;-70
2023/01/09 08:47:32;;;;;;;16.10;11.63;;;6.40;99.90;;;;;;5029686;28;20931;-70
2023/01/09 08:49:57;;;;;;;16.17;12.57;;;6.50;99.90;;;;;;5023174;28;20411;-69
2023/01/09 08:52:23;;;;;;;18.67;13.90;;;6.50;99.90;;;;;;5029955;28;20800;-69
2023/01/09 08:54:49;;;;;;;14.83;10.63;;;6.60;99.90;;;;;;5031064;28;20575;-69
2023/01/09 08:57:14;;;;;;;20.73;13.97;;;6.50;99.90;;;;;;5029651;28;20692;-70
2023/01/09 08:59:40;;;;;;;17.47;11.70;;;6.50;99.90;;;;;;5028969;28;20250;-69
2023/01/09 09:02:05;;;;;;;21.17;13.23;;;6.50;99.90;;;;;;5027250;28;20265;-69
2023/01/09 09:04:31;;;;;;;16.30;12.50;;;6.50;99.90;;;;;;5022967;28;20184;-69
2023/01/09 09:06:57;;;;;;;21.20;11.77;;;6.60;99.90;;;;;;5029135;28;20583;-70
2023/01/09 09:09:24;;;;;;;15.43;11.00;;;6.70;99.90;;;;;;5026604;28;20195;-71
2023/01/09 09:11:50;;;;;;;18.40;11.67;;;6.70;99.90;;;;;;5029449;28;20278;-69
2023/01/09 09:16:59;;;;;;;20.40;12.07;;;6.80;99.90;;;;;;5027634;28;20231;-71
2023/01/09 09:19:25;;;;;;;17.13;10.60;;;6.80;99.90;;;;;;5029066;28;20466;-70
2023/01/09 09:21:50;;;;;;;14.53;11.30;;;6.90;99.90;;;;;;5028646;28;20262;-69
2023/01/09 09:24:16;;;;;;;15.73;10.50;;;6.90;99.90;;;;;;5029561;28;20187;-70
2023/01/09 09:26:42;;;;;;;14.23;10.77;;;6.80;99.90;;;;;;5029807;28;20208;-68
2023/01/09 09:29:07;;;;;;;18.33;12.00;;;6.80;99.90;;;;;;5029825;28;20168;-70
2023/01/09 09:31:34;;;;;;;19.17;10.97;;;6.90;99.90;;;;;;5027212;28;20293;-71
2023/01/09 09:34:00;;;;;;;15.23;11.90;;;6.90;99.90;;;;;;5027032;28;20176;-70
2023/01/09 09:36:27;;;;;;;19.27;11.70;;;6.90;99.90;;;;;;5029784;28;20406;-70
2023/01/09 09:38:53;;;;;;;15.60;10.63;;;6.90;99.90;;;;;;5022039;28;20179;-69
2023/01/09 09:47:33;;;;;;;15.10;10.30;;;6.90;99.90;;;;;;5024612;28;20401;-69
2023/01/09 09:50:10;;;;;;;12.33;9.37;;;7.00;99.90;;;;;;5020189;28;20417;-69
2023/01/09 09:52:58;;;;;;;19.10;11.30;;;7.00;99.90;;;;;;5028619;28;20434;-69
2023/01/09 09:55:31;;;;;;;18.47;10.23;;;7.10;99.90;;;;;;5031254;28;20783;-69
2023/01/09 09:58:01;;;;;;;15.90;12.13;;;7.10;99.90;;;;;;5031524;28;20553;-69
2023/01/09 10:00:27;;;;;;;13.97;10.60;;;7.20;99.90;;;;;;5033659;28;20410;-70
2023/01/09 10:03:21;;;;;;;13.43;9.97;;;7.30;99.90;;;;;;5017269;28;20522;-70
2023/01/09 10:05:48;;;;;;;13.80;9.63;;;7.30;99.90;;;;;;5033917;28;20399;-68
2023/01/09 10:08:52;;;;;;;15.90;11.10;;;7.30;99.90;;;;;;5031270;28;20419;-70
2023/01/09 10:11:38;;;;;;;15.00;9.57;;;7.40;99.90;;;;;;5029682;28;20406;-68
2023/01/09 10:14:04;;;;;;;15.77;10.83;;;7.40;99.90;;;;;;5033719;28;20461;-70
2023/01/09 10:16:36;;;;;;;18.63;11.57;;;7.40;99.90;;;;;;5018669;28;20423;-69
2023/01/09 10:19:20;;;;;;;18.37;11.97;;;7.50;99.90;;;;;;5033512;28;20163;-70
2023/01/09 10:22:18;;;;;;;15.57;8.97;;;7.50;99.90;;;;;;5029107;28;20447;-68
2023/01/09 10:25:21;;;;;;;16.40;9.10;;;7.50;99.90;;;;;;5017007;28;20402;-69
2023/01/09 10:27:59;;;;;;;14.00;9.50;;;7.60;99.90;;;;;;5031826;28;20423;-70
2023/01/09 10:30:27;;;;;;;14.53;8.70;;;7.70;99.90;;;;;;5035418;28;20414;-70
2023/01/09 10:33:05;;;;;;;13.70;8.50;;;7.60;99.90;;;;;;5033250;28;21028;-69
2023/01/09 10:35:56;;;;;;;15.63;9.03;;;7.60;99.90;;;;;;5033701;28;20444;-69
2023/01/09 10:38:27;;;;;;;14.23;8.93;;;7.70;99.90;;;;;;5033359;28;20819;-69
2023/01/09 10:41:24;;;;;;;10.50;7.10;;;7.80;99.90;;;;;;5032849;28;20898;-70
2023/01/09 10:44:00;;;;;;;10.47;7.43;;;7.70;99.90;;;;;;5028246;28;20407;-70
2023/01/09 10:46:31;;;;;;;13.07;7.50;;;7.80;99.90;;;;;;5032422;28;20411;-69
2023/01/09 10:49:05;;;;;;;8.47;6.93;;;7.80;99.90;;;;;;5032983;28;20411;-69
2023/01/09 10:51:46;;;;;;;10.40;7.13;;;7.80;99.90;;;;;;5029837;28;20403;-69
2023/01/09 10:54:14;;;;;;;13.23;6.60;;;7.90;99.90;;;;;;5032804;28;20485;-69
2023/01/09 10:56:44;;;;;;;7.17;6.43;;;7.90;99.90;;;;;;5027200;28;20497;-69
2023/01/09 10:59:10;;;;;;;10.73;7.00;;;7.90;99.90;;;;;;5013599;28;20472;-70
2023/01/09 11:01:38;;;;;;;9.67;7.13;;;7.90;99.90;;;;;;5025367;28;20520;-70
2023/01/09 11:04:24;;;;;;;8.23;6.20;;;7.90;99.90;;;;;;5032594;28;20254;-70
2023/01/09 11:06:57;;;;;;;9.40;7.50;;;7.90;99.90;;;;;;5030818;28;20411;-70
2023/01/09 11:09:23;;;;;;;8.97;5.53;;;7.90;99.90;;;;;;5032147;28;21036;-69
2023/01/09 11:11:49;;;;;;;10.73;6.80;;;7.90;99.90;;;;;;5032199;28;20560;-69
2023/01/09 11:14:26;;;;;;;9.87;6.70;;;7.90;99.90;;;;;;5032116;28;20206;-69
2023/01/09 11:16:53;;;;;;;10.00;6.80;;;8.00;99.90;;;;;;5029419;28;20280;-68
2023/01/09 11:19:20;;;;;;;9.60;5.93;;;8.10;99.90;;;;;;5032875;28;20991;-67
2023/01/09 11:21:46;;;;;;;7.93;5.70;;;8.00;99.90;;;;;;5032080;28;20522;-72
2023/01/09 11:24:27;;;;;;;7.57;5.03;;;8.00;99.90;;;;;;5014369;28;20835;-68
2023/01/09 11:27:11;;;;;;;9.40;7.20;;;7.90;99.90;;;;;;5028131;28;20412;-69
2023/01/09 11:29:38;;;;;;;7.57;6.17;;;8.00;99.90;;;;;;5014123;28;20431;-69
2023/01/09 11:32:03;;;;;;;8.43;6.40;;;8.00;99.90;;;;;;5031613;28;20536;-69
2023/01/09 11:34:32;;;;;;;6.63;4.83;;;8.10;99.90;;;;;;5031817;28;20509;-70
2023/01/09 11:37:12;;;;;;;6.70;5.30;;;7.90;99.90;;;;;;5030384;28;20233;-69
2023/01/09 11:39:44;;;;;;;7.10;5.03;;;7.90;99.90;;;;;;5031801;28;20418;-70
2023/01/09 11:42:50;;;;;;;5.80;5.30;;;8.00;99.90;;;;;;5032074;28;20426;-69
2023/01/09 11:45:17;;;;;;;6.13;4.53;;;8.00;99.90;;;;;;5026363;28;20406;-69
2023/01/09 11:47:43;;;;;;;6.97;5.53;;;8.00;99.90;;;;;;5031872;28;20415;-69
2023/01/09 11:50:17;;;;;;;4.60;3.93;;;8.00;99.90;;;;;;5031953;28;20414;-71
2023/01/09 11:52:43;;;;;;;4.60;3.50;;;8.20;99.90;;;;;;5031422;28;20763;-70
2023/01/09 11:55:13;;;;;;;6.07;4.37;;;8.20;99.90;;;;;;5031682;28;20424;-70
2023/01/09 11:57:39;;;;;;;5.63;4.90;;;8.10;99.90;;;;;;5021543;28;20207;-69
2023/01/09 12:00:27;;;;;;;7.50;4.47;;;8.20;99.90;;;;;;5022789;28;20531;-68
2023/01/09 12:03:01;;;;;;;4.20;3.80;;;8.20;99.90;;;;;;5026131;28;20195;-69
2023/01/09 12:05:36;;;;;;;5.53;4.67;;;8.10;99.90;;;;;;5024968;28;20408;-69
2023/01/09 12:08:14;;;;;;;7.23;4.03;;;8.20;99.90;;;;;;5031250;28;20889;-69
2023/01/09 12:11:23;;;;;;;5.93;4.30;;;8.20;99.90;;;;;;5031447;28;20422;-68
2023/01/09 12:13:58;;;;;;;6.80;4.27;;;8.20;99.90;;;;;;5019078;28;20461;-69
2023/01/09 12:16:49;;;;;;;7.83;5.27;;;8.40;99.90;;;;;;5030744;28;20415;-69
2023/01/09 12:19:36;;;;;;;6.17;3.83;;;8.60;99.90;;;;;;5026269;28;21014;-69
2023/01/09 12:22:20;;;;;;;4.53;3.50;;;8.70;99.90;;;;;;5028355;28;20973;-68
2023/01/09 12:25:04;;;;;;;5.30;3.73;;;9.00;99.90;;;;;;5027387;28;20424;-69
2023/01/09 12:27:51;;;;;;;5.37;2.80;;;8.90;99.90;;;;;;5030251;28;20840;-69
2023/01/09 12:30:25;;;;;;;3.07;2.83;;;8.90;99.90;;;;;;5030656;28;20424;-69
2023/01/09 12:33:28;;;;;;;4.33;3.10;;;8.90;99.90;;;;;;5023681;28;20447;-70
2023/01/09 12:36:03;;;;;;;5.07;3.17;;;8.70;99.90;;;;;;5026370;28;20448;-70
2023/01/09 12:38:52;;;;;;;5.73;2.87;;;8.60;99.90;;;;;;5030777;28;20813;-70
2023/01/09 12:41:38;;;;;;;3.00;2.30;;;8.70;99.90;;;;;;5024161;28;20427;-69
2023/01/09 12:44:29;;;;;;;8.10;2.57;;;8.70;99.90;;;;;;5029538;28;20400;-70
2023/01/09 12:47:23;;;;;;;5.40;2.50;;;8.50;99.90;;;;;;5030757;28;20430;-71
2023/01/09 12:50:13;;;;;;;3.53;2.60;;;8.50;99.90;;;;;;5029396;28;20721;-70
2023/01/09 12:53:04;;;;;;;4.10;2.80;;;8.40;99.90;;;;;;5030024;28;20441;-69
2023/01/09 12:55:35;;;;;;;3.40;2.23;;;8.40;99.90;;;;;;5030434;28;20415;-70
2023/01/09 12:58:11;;;;;;;3.47;3.00;;;8.50;99.90;;;;;;5024478;28;20457;-70
2023/01/09 13:00:41;;;;;;;3.60;2.70;;;8.40;99.90;;;;;;5023196;28;20497;-69
2023/01/09 13:03:33;;;;;;;6.77;2.60;;;8.40;99.90;;;;;;5019325;28;20495;-68
2023/01/09 13:06:00;;;;;;;2.50;2.30;;;8.40;99.90;;;;;;5027479;28;20450;-69
2023/01/09 13:08:41;;;;;;;12.20;3.37;;;8.50;99.90;;;;;;5028460;28;20887;-69
2023/01/09 13:11:31;;;;;;;2.73;2.53;;;8.50;99.90;;;;;;5029308;28;20514;-69
2023/01/09 13:14:20;;;;;;;6.40;3.33;;;8.60;99.90;;;;;;5023078;28;20420;-69
2023/01/09 13:16:50;;;;;;;12.50;2.90;;;8.60;99.90;;;;;;5021531;28;20416;-69
2023/01/09 13:19:32;;;;;;;4.03;2.40;;;8.60;99.90;;;;;;5030082;28;20931;-69